sensor_id;sensor_type;location;lat;lon;timestamp;P1;durP1;ratioP1;P2;durP2;ratioP2
16770;SDS011;8503;52.472;13.344;2023-05-10T00:00:16;4.80;;;3.08;;
16770;SDS011;8503;52.472;13.344;2023-05-10T00:01:39;4.72;;;2.90;;
16770;SDS011;8503;52.472;13.344;2023-05-10T00:03:04;4.25;;;3.03;;
16770;SDS011;8503;52.472;13.344;2023-05-10T00:04:27;7.68;;;3.40;;
16770;SDS011;8503;52.472;13.344;2023-05-10T00:05:50;5.60;;;3.30;;
16770;SDS011;8503;52.472;13.344;2023-05-10T00:07:14;7.05;;;3.58;;
16770;SDS011;8503;52.472;13.344;2023-05-10T00:08:39;5.57;;;3.25;;
16770;SDS011;8503;52.472;13.344;2023-05-10T00:10:02;5.45;;;2.60;;
16770;SDS011;8503;52.472;13.344;2023-05-10T00:11:27;6.18;;;3.25;;
16770;SDS011;8503;52.472;13.344;2023-05-10T00:12:50;5.93;;;3.20;;
16770;SDS011;8503;52.472;13.344;2023-05-10T00:14:14;8.32;;;3.20;;
16770;SDS011;8503;52.472;13.344;2023-05-10T00:15:37;5.07;;;3.35;;
16770;SDS011;8503;52.472;13.344;2023-05-10T00:17:00;5.22;;;3.33;;
16770;SDS011;8503;52.472;13.344;2023-05-10T00:18:26;4.70;;;3.70;;
16770;SDS011;8503;52.472;13.344;2023-05-10T00:19:49;4.88;;;3.40;;
16770;SDS011;8503;52.472;13.344;2023-05-10T00:21:13;4.32;;;3.05;;
16770;SDS011;8503;52.472;13.344;2023-05-10T00:22:36;5.15;;;3.33;;
16770;SDS011;8503;52.472;13.344;2023-05-10T00:23:59;5.60;;;3.30;;
16770;SDS011;8503;52.472;13.344;2023-05-10T00:25:22;6.68;;;3.42;;
16770;SDS011;8503;52.472;13.344;2023-05-10T00:26:47;4.32;;;2.88;;
16770;SDS011;8503;52.472;13.344;2023-05-10T00:28:10;4.78;;;3.03;;
16770;SDS011;8503;52.472;13.344;2023-05-10T00:29:33;7.63;;;4.00;;
16770;SDS011;8503;52.472;13.344;2023-05-10T00:30:56;5.70;;;3.55;;
16770;SDS011;8503;52.472;13.344;2023-05-10T00:32:20;4.68;;;3.08;;
16770;SDS011;8503;52.472;13.344;2023-05-10T00:33:42;6.00;;;3.47;;
16770;SDS011;8503;52.472;13.344;2023-05-10T00:35:06;5.07;;;3.35;;
16770;SDS011;8503;52.472;13.344;2023-05-10T00:36:31;3.35;;;2.22;;
16770;SDS011;8503;52.472;13.344;2023-05-10T00:37:58;5.22;;;3.47;;
16770;SDS011;8503;52.472;13.344;2023-05-10T00:39:21;5.75;;;3.90;;
16770;SDS011;8503;52.472;13.344;2023-05-10T00:40:44;7.75;;;3.65;;
16770;SDS011;8503;52.472;13.344;2023-05-10T00:42:09;5.43;;;3.65;;
16770;SDS011;8503;52.472;13.344;2023-05-10T00:43:32;4.57;;;3.42;;
16770;SDS011;8503;52.472;13.344;2023-05-10T00:44:55;5.25;;;3.65;;
16770;SDS011;8503;52.472;13.344;2023-05-10T00:46:19;7.13;;;3.47;;
16770;SDS011;8503;52.472;13.344;2023-05-10T00:47:43;3.85;;;3.35;;
16770;SDS011;8503;52.472;13.344;2023-05-10T00:49:05;7.55;;;3.80;;
16770;SDS011;8503;52.472;13.344;2023-05-10T00:50:29;4.50;;;3.08;;
16770;SDS011;8503;52.472;13.344;2023-05-10T00:51:53;6.90;;;4.38;;
16770;SDS011;8503;52.472;13.344;2023-05-10T00:53:16;4.47;;;3.03;;
16770;SDS011;8503;52.472;13.344;2023-05-10T00:54:39;7.53;;;3.88;;
16770;SDS011;8503;52.472;13.344;2023-05-10T00:56:03;6.55;;;3.78;;
16770;SDS011;8503;52.472;13.344;2023-05-10T00:57:28;5.35;;;3.63;;
16770;SDS011;8503;52.472;13.344;2023-05-10T00:58:52;6.78;;;3.70;;
16770;SDS011;8503;52.472;13.344;2023-05-10T01:00:16;4.35;;;2.88;;
16770;SDS011;8503;52.472;13.344;2023-05-10T01:01:40;7.18;;;4.15;;
16770;SDS011;8503;52.472;13.344;2023-05-10T01:03:03;6.30;;;4.05;;
16770;SDS011;8503;52.472;13.344;2023-05-10T01:04:27;12.32;;;4.43;;
16770;SDS011;8503;52.472;13.344;2023-05-10T01:05:51;4.75;;;3.55;;
16770;SDS011;8503;52.472;13.344;2023-05-10T01:07:15;6.53;;;3.65;;
16770;SDS011;8503;52.472;13.344;2023-05-10T01:08:38;8.90;;;4.15;;
16770;SDS011;8503;52.472;13.344;2023-05-10T01:10:03;7.55;;;4.20;;
16770;SDS011;8503;52.472;13.344;2023-05-10T01:11:26;6.78;;;3.88;;
16770;SDS011;8503;52.472;13.344;2023-05-10T01:12:51;8.23;;;3.67;;
16770;SDS011;8503;52.472;13.344;2023-05-10T01:14:15;6.90;;;3.95;;
16770;SDS011;8503;52.472;13.344;2023-05-10T01:15:42;4.50;;;3.55;;
16770;SDS011;8503;52.472;13.344;2023-05-10T01:17:06;7.65;;;4.05;;
16770;SDS011;8503;52.472;13.344;2023-05-10T01:18:30;6.72;;;4.78;;
16770;SDS011;8503;52.472;13.344;2023-05-10T01:19:55;5.63;;;3.83;;
16770;SDS011;8503;52.472;13.344;2023-05-10T01:21:21;2.63;;;1.83;;
16770;SDS011;8503;52.472;13.344;2023-05-10T01:22:55;6.75;;;3.85;;
16770;SDS011;8503;52.472;13.344;2023-05-10T01:24:40;8.77;;;3.72;;
16770;SDS011;8503;52.472;13.344;2023-05-10T01:30:22;7.80;;;4.20;;
16770;SDS011;8503;52.472;13.344;2023-05-10T01:32:15;9.27;;;4.00;;
16770;SDS011;8503;52.472;13.344;2023-05-10T01:33:42;6.80;;;4.63;;
16770;SDS011;8503;52.472;13.344;2023-05-10T01:35:10;6.15;;;4.30;;
16770;SDS011;8503;52.472;13.344;2023-05-10T01:36:39;8.35;;;4.65;;
16770;SDS011;8503;52.472;13.344;2023-05-10T01:38:09;7.63;;;4.25;;
16770;SDS011;8503;52.472;13.344;2023-05-10T01:39:36;8.57;;;4.60;;
16770;SDS011;8503;52.472;13.344;2023-05-10T01:41:05;5.57;;;4.00;;
16770;SDS011;8503;52.472;13.344;2023-05-10T01:42:36;8.18;;;4.25;;
16770;SDS011;8503;52.472;13.344;2023-05-10T01:44:02;5.20;;;3.90;;
16770;SDS011;8503;52.472;13.344;2023-05-10T01:45:39;7.13;;;3.80;;
16770;SDS011;8503;52.472;13.344;2023-05-10T01:47:07;7.47;;;3.78;;
16770;SDS011;8503;52.472;13.344;2023-05-10T01:48:34;7.95;;;3.90;;
16770;SDS011;8503;52.472;13.344;2023-05-10T01:49:57;5.22;;;3.95;;
16770;SDS011;8503;52.472;13.344;2023-05-10T01:51:26;6.88;;;4.53;;
16770;SDS011;8503;52.472;13.344;2023-05-10T01:52:51;7.05;;;4.13;;
16770;SDS011;8503;52.472;13.344;2023-05-10T01:54:17;6.60;;;4.30;;
16770;SDS011;8503;52.472;13.344;2023-05-10T01:55:43;6.35;;;4.22;;
16770;SDS011;8503;52.472;13.344;2023-05-10T01:57:08;6.85;;;4.25;;
16770;SDS011;8503;52.472;13.344;2023-05-10T01:58:33;5.28;;;3.95;;
16770;SDS011;8503;52.472;13.344;2023-05-10T01:59:57;7.20;;;3.97;;
16770;SDS011;8503;52.472;13.344;2023-05-10T02:01:20;9.93;;;4.47;;
16770;SDS011;8503;52.472;13.344;2023-05-10T02:02:45;6.07;;;4.15;;
16770;SDS011;8503;52.472;13.344;2023-05-10T02:04:10;5.85;;;4.03;;
16770;SDS011;8503;52.472;13.344;2023-05-10T02:05:35;6.30;;;4.18;;
16770;SDS011;8503;52.472;13.344;2023-05-10T02:06:59;7.55;;;4.10;;
16770;SDS011;8503;52.472;13.344;2023-05-10T02:08:23;7.88;;;4.10;;
16770;SDS011;8503;52.472;13.344;2023-05-10T02:09:46;5.13;;;3.55;;
16770;SDS011;8503;52.472;13.344;2023-05-10T02:11:10;8.70;;;4.72;;
16770;SDS011;8503;52.472;13.344;2023-05-10T02:12:36;6.20;;;3.60;;
16770;SDS011;8503;52.472;13.344;2023-05-10T02:14:02;9.13;;;4.05;;
16770;SDS011;8503;52.472;13.344;2023-05-10T02:15:24;7.75;;;3.72;;
16770;SDS011;8503;52.472;13.344;2023-05-10T02:16:48;7.35;;;4.70;;
16770;SDS011;8503;52.472;13.344;2023-05-10T02:18:13;5.25;;;3.50;;
16770;SDS011;8503;52.472;13.344;2023-05-10T02:19:39;7.50;;;4.20;;
16770;SDS011;8503;52.472;13.344;2023-05-10T02:21:04;7.72;;;4.35;;
16770;SDS011;8503;52.472;13.344;2023-05-10T02:22:27;9.75;;;4.63;;
16770;SDS011;8503;52.472;13.344;2023-05-10T02:23:51;9.05;;;4.38;;
16770;SDS011;8503;52.472;13.344;2023-05-10T02:25:17;6.28;;;4.15;;
16770;SDS011;8503;52.472;13.344;2023-05-10T02:26:41;4.75;;;3.38;;
16770;SDS011;8503;52.472;13.344;2023-05-10T02:28:06;6.32;;;3.72;;
16770;SDS011;8503;52.472;13.344;2023-05-10T02:29:29;6.72;;;3.72;;
16770;SDS011;8503;52.472;13.344;2023-05-10T02:30:53;6.38;;;4.35;;
16770;SDS011;8503;52.472;13.344;2023-05-10T02:32:16;6.03;;;3.65;;
16770;SDS011;8503;52.472;13.344;2023-05-10T02:33:40;7.18;;;4.47;;
16770;SDS011;8503;52.472;13.344;2023-05-10T02:35:05;7.25;;;3.90;;
16770;SDS011;8503;52.472;13.344;2023-05-10T02:36:30;5.13;;;3.70;;
16770;SDS011;8503;52.472;13.344;2023-05-10T02:37:54;7.10;;;4.47;;
16770;SDS011;8503;52.472;13.344;2023-05-10T02:39:17;6.22;;;4.07;;
16770;SDS011;8503;52.472;13.344;2023-05-10T02:40:42;5.32;;;3.60;;
16770;SDS011;8503;52.472;13.344;2023-05-10T02:42:05;6.72;;;3.67;;
16770;SDS011;8503;52.472;13.344;2023-05-10T02:43:28;6.82;;;3.17;;
16770;SDS011;8503;52.472;13.344;2023-05-10T02:44:53;6.93;;;4.47;;
16770;SDS011;8503;52.472;13.344;2023-05-10T02:46:17;8.80;;;4.55;;
16770;SDS011;8503;52.472;13.344;2023-05-10T02:47:41;7.80;;;4.35;;
16770;SDS011;8503;52.472;13.344;2023-05-10T02:49:05;8.85;;;4.43;;
16770;SDS011;8503;52.472;13.344;2023-05-10T02:50:30;6.45;;;3.85;;
16770;SDS011;8503;52.472;13.344;2023-05-10T02:51:55;7.10;;;3.78;;
16770;SDS011;8503;52.472;13.344;2023-05-10T02:53:22;8.50;;;3.88;;
16770;SDS011;8503;52.472;13.344;2023-05-10T02:54:50;5.95;;;3.97;;
16770;SDS011;8503;52.472;13.344;2023-05-10T02:56:20;7.32;;;4.57;;
16770;SDS011;8503;52.472;13.344;2023-05-10T02:57:48;7.07;;;4.20;;
16770;SDS011;8503;52.472;13.344;2023-05-10T02:59:14;8.57;;;4.07;;
16770;SDS011;8503;52.472;13.344;2023-05-10T03:00:37;7.05;;;4.38;;
16770;SDS011;8503;52.472;13.344;2023-05-10T03:02:01;7.03;;;4.05;;
16770;SDS011;8503;52.472;13.344;2023-05-10T03:03:24;4.50;;;3.92;;
16770;SDS011;8503;52.472;13.344;2023-05-10T03:04:47;8.90;;;3.35;;
16770;SDS011;8503;52.472;13.344;2023-05-10T03:06:11;5.32;;;4.18;;
16770;SDS011;8503;52.472;13.344;2023-05-10T03:07:35;6.60;;;3.45;;
16770;SDS011;8503;52.472;13.344;2023-05-10T03:08:59;5.38;;;4.13;;
16770;SDS011;8503;52.472;13.344;2023-05-10T03:10:23;6.65;;;3.53;;
16770;SDS011;8503;52.472;13.344;2023-05-10T03:11:50;5.22;;;3.65;;
16770;SDS011;8503;52.472;13.344;2023-05-10T03:13:21;7.88;;;2.97;;
16770;SDS011;8503;52.472;13.344;2023-05-10T03:14:53;7.75;;;3.90;;
16770;SDS011;8503;52.472;13.344;2023-05-10T03:16:24;5.22;;;3.25;;
16770;SDS011;8503;52.472;13.344;2023-05-10T03:17:52;9.18;;;3.75;;
16770;SDS011;8503;52.472;13.344;2023-05-10T03:19:17;8.55;;;4.35;;
16770;SDS011;8503;52.472;13.344;2023-05-10T03:20:49;4.95;;;3.67;;
16770;SDS011;8503;52.472;13.344;2023-05-10T03:22:16;6.10;;;3.63;;
16770;SDS011;8503;52.472;13.344;2023-05-10T03:23:47;4.85;;;3.50;;
16770;SDS011;8503;52.472;13.344;2023-05-10T03:25:14;7.60;;;3.63;;
16770;SDS011;8503;52.472;13.344;2023-05-10T03:26:37;4.10;;;3.63;;
16770;SDS011;8503;52.472;13.344;2023-05-10T03:28:02;9.52;;;4.00;;
16770;SDS011;8503;52.472;13.344;2023-05-10T03:29:27;5.97;;;3.85;;
16770;SDS011;8503;52.472;13.344;2023-05-10T03:30:52;6.47;;;3.47;;
16770;SDS011;8503;52.472;13.344;2023-05-10T03:32:16;7.70;;;3.90;;
16770;SDS011;8503;52.472;13.344;2023-05-10T03:33:45;7.25;;;3.80;;
16770;SDS011;8503;52.472;13.344;2023-05-10T03:35:10;4.43;;;3.30;;
16770;SDS011;8503;52.472;13.344;2023-05-10T03:36:33;7.57;;;3.78;;
16770;SDS011;8503;52.472;13.344;2023-05-10T03:37:58;5.63;;;3.63;;
16770;SDS011;8503;52.472;13.344;2023-05-10T03:39:22;6.43;;;4.07;;
16770;SDS011;8503;52.472;13.344;2023-05-10T03:40:46;5.50;;;3.88;;
16770;SDS011;8503;52.472;13.344;2023-05-10T03:42:09;4.88;;;3.45;;
16770;SDS011;8503;52.472;13.344;2023-05-10T03:43:33;5.57;;;3.38;;
16770;SDS011;8503;52.472;13.344;2023-05-10T03:44:56;6.82;;;3.83;;
16770;SDS011;8503;52.472;13.344;2023-05-10T03:46:20;5.43;;;3.45;;
16770;SDS011;8503;52.472;13.344;2023-05-10T03:47:43;4.35;;;3.47;;
16770;SDS011;8503;52.472;13.344;2023-05-10T03:49:07;6.07;;;3.63;;
16770;SDS011;8503;52.472;13.344;2023-05-10T03:50:30;3.88;;;3.00;;
16770;SDS011;8503;52.472;13.344;2023-05-10T03:51:53;9.15;;;3.10;;
16770;SDS011;8503;52.472;13.344;2023-05-10T03:53:17;5.55;;;3.40;;
16770;SDS011;8503;52.472;13.344;2023-05-10T03:54:41;5.30;;;3.80;;
16770;SDS011;8503;52.472;13.344;2023-05-10T03:56:04;4.93;;;3.17;;
16770;SDS011;8503;52.472;13.344;2023-05-10T03:57:27;7.30;;;4.07;;
16770;SDS011;8503;52.472;13.344;2023-05-10T03:58:50;6.72;;;3.28;;
16770;SDS011;8503;52.472;13.344;2023-05-10T04:00:14;8.00;;;3.80;;
16770;SDS011;8503;52.472;13.344;2023-05-10T04:01:39;5.72;;;3.03;;
16770;SDS011;8503;52.472;13.344;2023-05-10T04:03:02;5.43;;;3.50;;
16770;SDS011;8503;52.472;13.344;2023-05-10T04:04:25;6.65;;;3.20;;
16770;SDS011;8503;52.472;13.344;2023-05-10T04:05:49;5.72;;;3.17;;
16770;SDS011;8503;52.472;13.344;2023-05-10T04:07:12;4.65;;;2.70;;
16770;SDS011;8503;52.472;13.344;2023-05-10T04:08:37;6.18;;;3.35;;
16770;SDS011;8503;52.472;13.344;2023-05-10T04:09:59;8.18;;;3.30;;
16770;SDS011;8503;52.472;13.344;2023-05-10T04:11:23;6.25;;;2.97;;
16770;SDS011;8503;52.472;13.344;2023-05-10T04:12:46;6.05;;;3.80;;
16770;SDS011;8503;52.472;13.344;2023-05-10T04:14:09;7.13;;;3.80;;
16770;SDS011;8503;52.472;13.344;2023-05-10T04:15:32;4.57;;;3.17;;
16770;SDS011;8503;52.472;13.344;2023-05-10T04:16:55;8.10;;;3.38;;
16770;SDS011;8503;52.472;13.344;2023-05-10T04:18:18;7.82;;;3.88;;
16770;SDS011;8503;52.472;13.344;2023-05-10T04:19:42;7.30;;;3.17;;
16770;SDS011;8503;52.472;13.344;2023-05-10T04:21:10;4.20;;;3.40;;
16770;SDS011;8503;52.472;13.344;2023-05-10T04:22:34;8.02;;;3.38;;
16770;SDS011;8503;52.472;13.344;2023-05-10T04:24:00;4.53;;;3.30;;
16770;SDS011;8503;52.472;13.344;2023-05-10T04:25:22;5.10;;;2.90;;
16770;SDS011;8503;52.472;13.344;2023-05-10T04:26:46;7.22;;;3.17;;
16770;SDS011;8503;52.472;13.344;2023-05-10T04:28:09;4.93;;;2.97;;
16770;SDS011;8503;52.472;13.344;2023-05-10T04:29:33;6.40;;;3.10;;
16770;SDS011;8503;52.472;13.344;2023-05-10T04:31:00;5.95;;;3.67;;
16770;SDS011;8503;52.472;13.344;2023-05-10T04:32:23;4.65;;;3.28;;
16770;SDS011;8503;52.472;13.344;2023-05-10T04:33:47;3.85;;;3.15;;
16770;SDS011;8503;52.472;13.344;2023-05-10T04:35:12;6.57;;;3.67;;
16770;SDS011;8503;52.472;13.344;2023-05-10T04:36:36;6.70;;;3.65;;
16770;SDS011;8503;52.472;13.344;2023-05-10T04:37:58;8.10;;;3.42;;
16770;SDS011;8503;52.472;13.344;2023-05-10T04:39:23;3.50;;;3.17;;
16770;SDS011;8503;52.472;13.344;2023-05-10T04:40:47;5.03;;;3.05;;
16770;SDS011;8503;52.472;13.344;2023-05-10T04:42:09;5.22;;;2.95;;
16770;SDS011;8503;52.472;13.344;2023-05-10T04:43:33;6.13;;;3.03;;
16770;SDS011;8503;52.472;13.344;2023-05-10T04:44:57;6.03;;;3.88;;
16770;SDS011;8503;52.472;13.344;2023-05-10T04:46:20;5.40;;;3.30;;
16770;SDS011;8503;52.472;13.344;2023-05-10T04:47:44;6.20;;;3.20;;
16770;SDS011;8503;52.472;13.344;2023-05-10T04:49:06;7.13;;;2.70;;
16770;SDS011;8503;52.472;13.344;2023-05-10T04:50:30;6.82;;;3.35;;
16770;SDS011;8503;52.472;13.344;2023-05-10T04:51:52;7.22;;;2.83;;
16770;SDS011;8503;52.472;13.344;2023-05-10T04:53:16;4.95;;;3.30;;
16770;SDS011;8503;52.472;13.344;2023-05-10T04:54:41;5.63;;;3.20;;
16770;SDS011;8503;52.472;13.344;2023-05-10T04:56:05;6.78;;;2.75;;
16770;SDS011;8503;52.472;13.344;2023-05-10T04:57:28;3.78;;;3.10;;
16770;SDS011;8503;52.472;13.344;2023-05-10T04:58:51;3.45;;;2.80;;
16770;SDS011;8503;52.472;13.344;2023-05-10T05:00:15;6.00;;;2.80;;
16770;SDS011;8503;52.472;13.344;2023-05-10T05:01:39;5.55;;;2.88;;
16770;SDS011;8503;52.472;13.344;2023-05-10T05:03:02;5.70;;;3.50;;
16770;SDS011;8503;52.472;13.344;2023-05-10T05:04:25;5.25;;;2.67;;
16770;SDS011;8503;52.472;13.344;2023-05-10T05:05:49;5.05;;;3.47;;
16770;SDS011;8503;52.472;13.344;2023-05-10T05:07:11;3.55;;;2.75;;
16770;SDS011;8503;52.472;13.344;2023-05-10T05:08:35;3.25;;;2.83;;
16770;SDS011;8503;52.472;13.344;2023-05-10T05:10:00;5.50;;;3.00;;
16770;SDS011;8503;52.472;13.344;2023-05-10T05:11:23;4.05;;;2.90;;
16770;SDS011;8503;52.472;13.344;2023-05-10T05:12:47;4.10;;;3.20;;
16770;SDS011;8503;52.472;13.344;2023-05-10T05:14:11;9.57;;;3.33;;
16770;SDS011;8503;52.472;13.344;2023-05-10T05:15:34;3.63;;;2.90;;
16770;SDS011;8503;52.472;13.344;2023-05-10T05:16:58;3.05;;;2.45;;
16770;SDS011;8503;52.472;13.344;2023-05-10T05:18:21;4.38;;;2.90;;
16770;SDS011;8503;52.472;13.344;2023-05-10T05:19:45;5.38;;;2.50;;
16770;SDS011;8503;52.472;13.344;2023-05-10T05:21:13;6.18;;;3.55;;
16770;SDS011;8503;52.472;13.344;2023-05-10T05:22:37;4.25;;;2.75;;
16770;SDS011;8503;52.472;13.344;2023-05-10T05:24:01;5.90;;;2.80;;
16770;SDS011;8503;52.472;13.344;2023-05-10T05:25:25;4.28;;;2.72;;
16770;SDS011;8503;52.472;13.344;2023-05-10T05:26:49;3.83;;;2.42;;
16770;SDS011;8503;52.472;13.344;2023-05-10T05:28:12;6.47;;;2.88;;
16770;SDS011;8503;52.472;13.344;2023-05-10T05:29:35;3.13;;;2.28;;
16770;SDS011;8503;52.472;13.344;2023-05-10T05:31:00;6.55;;;3.15;;
16770;SDS011;8503;52.472;13.344;2023-05-10T05:32:24;2.28;;;2.08;;
16770;SDS011;8503;52.472;13.344;2023-05-10T05:33:47;3.20;;;2.33;;
16770;SDS011;8503;52.472;13.344;2023-05-10T05:35:10;4.47;;;2.47;;
16770;SDS011;8503;52.472;13.344;2023-05-10T05:36:35;4.75;;;1.90;;
16770;SDS011;8503;52.472;13.344;2023-05-10T05:37:59;5.45;;;2.60;;
16770;SDS011;8503;52.472;13.344;2023-05-10T05:39:22;6.82;;;2.60;;
16770;SDS011;8503;52.472;13.344;2023-05-10T05:40:47;2.92;;;2.40;;
16770;SDS011;8503;52.472;13.344;2023-05-10T05:42:11;3.55;;;2.22;;
16770;SDS011;8503;52.472;13.344;2023-05-10T05:43:35;8.50;;;2.63;;
16770;SDS011;8503;52.472;13.344;2023-05-10T05:44:58;3.55;;;2.72;;
16770;SDS011;8503;52.472;13.344;2023-05-10T05:46:22;4.88;;;2.85;;
16770;SDS011;8503;52.472;13.344;2023-05-10T05:47:46;9.45;;;2.05;;
16770;SDS011;8503;52.472;13.344;2023-05-10T05:49:10;4.63;;;2.88;;
16770;SDS011;8503;52.472;13.344;2023-05-10T05:50:33;5.97;;;2.60;;
16770;SDS011;8503;52.472;13.344;2023-05-10T05:51:58;8.48;;;2.72;;
16770;SDS011;8503;52.472;13.344;2023-05-10T05:53:22;2.88;;;2.17;;
16770;SDS011;8503;52.472;13.344;2023-05-10T05:54:46;4.32;;;3.00;;
16770;SDS011;8503;52.472;13.344;2023-05-10T05:56:11;4.32;;;2.42;;
16770;SDS011;8503;52.472;13.344;2023-05-10T05:57:34;8.35;;;2.65;;
16770;SDS011;8503;52.472;13.344;2023-05-10T05:58:58;2.90;;;2.28;;
16770;SDS011;8503;52.472;13.344;2023-05-10T06:00:22;4.15;;;2.38;;
16770;SDS011;8503;52.472;13.344;2023-05-10T06:01:46;4.55;;;2.58;;
16770;SDS011;8503;52.472;13.344;2023-05-10T06:03:09;3.40;;;2.47;;
16770;SDS011;8503;52.472;13.344;2023-05-10T06:04:32;4.45;;;2.33;;
16770;SDS011;8503;52.472;13.344;2023-05-10T06:05:56;6.50;;;2.53;;
16770;SDS011;8503;52.472;13.344;2023-05-10T06:07:19;3.95;;;2.83;;
16770;SDS011;8503;52.472;13.344;2023-05-10T06:08:43;3.80;;;2.10;;
16770;SDS011;8503;52.472;13.344;2023-05-10T06:10:07;3.28;;;2.20;;
16770;SDS011;8503;52.472;13.344;2023-05-10T06:11:31;8.48;;;2.80;;
16770;SDS011;8503;52.472;13.344;2023-05-10T06:12:55;3.80;;;2.47;;
16770;SDS011;8503;52.472;13.344;2023-05-10T06:14:19;3.90;;;2.20;;
16770;SDS011;8503;52.472;13.344;2023-05-10T06:15:44;3.22;;;2.53;;
16770;SDS011;8503;52.472;13.344;2023-05-10T06:17:07;4.85;;;2.58;;
16770;SDS011;8503;52.472;13.344;2023-05-10T06:18:31;5.47;;;2.40;;
16770;SDS011;8503;52.472;13.344;2023-05-10T06:19:54;3.22;;;1.98;;
16770;SDS011;8503;52.472;13.344;2023-05-10T06:21:18;3.58;;;2.58;;
16770;SDS011;8503;52.472;13.344;2023-05-10T06:22:41;3.85;;;2.28;;
16770;SDS011;8503;52.472;13.344;2023-05-10T06:24:05;3.35;;;2.35;;
16770;SDS011;8503;52.472;13.344;2023-05-10T06:25:29;4.10;;;2.20;;
16770;SDS011;8503;52.472;13.344;2023-05-10T06:26:54;2.33;;;2.00;;
16770;SDS011;8503;52.472;13.344;2023-05-10T06:28:21;2.40;;;2.13;;
16770;SDS011;8503;52.472;13.344;2023-05-10T06:29:44;3.92;;;2.33;;
16770;SDS011;8503;52.472;13.344;2023-05-10T06:31:10;3.70;;;2.20;;
16770;SDS011;8503;52.472;13.344;2023-05-10T06:32:35;4.38;;;2.25;;
16770;SDS011;8503;52.472;13.344;2023-05-10T06:33:58;2.72;;;1.88;;
16770;SDS011;8503;52.472;13.344;2023-05-10T06:35:22;3.20;;;1.88;;
16770;SDS011;8503;52.472;13.344;2023-05-10T06:36:46;4.50;;;1.88;;
16770;SDS011;8503;52.472;13.344;2023-05-10T06:38:10;2.67;;;2.00;;
16770;SDS011;8503;52.472;13.344;2023-05-10T06:39:33;2.13;;;1.73;;
16770;SDS011;8503;52.472;13.344;2023-05-10T06:40:56;2.40;;;1.95;;
16770;SDS011;8503;52.472;13.344;2023-05-10T06:42:21;2.58;;;1.88;;
16770;SDS011;8503;52.472;13.344;2023-05-10T06:43:46;2.10;;;1.90;;
16770;SDS011;8503;52.472;13.344;2023-05-10T06:45:10;3.20;;;1.75;;
16770;SDS011;8503;52.472;13.344;2023-05-10T06:46:33;3.15;;;1.92;;
16770;SDS011;8503;52.472;13.344;2023-05-10T06:47:57;6.93;;;2.85;;
16770;SDS011;8503;52.472;13.344;2023-05-10T06:49:21;6.90;;;1.98;;
16770;SDS011;8503;52.472;13.344;2023-05-10T06:50:44;7.55;;;2.10;;
16770;SDS011;8503;52.472;13.344;2023-05-10T06:52:08;2.97;;;1.77;;
16770;SDS011;8503;52.472;13.344;2023-05-10T06:53:31;3.80;;;2.17;;
16770;SDS011;8503;52.472;13.344;2023-05-10T06:54:56;4.07;;;2.05;;
16770;SDS011;8503;52.472;13.344;2023-05-10T06:56:19;5.22;;;1.90;;
16770;SDS011;8503;52.472;13.344;2023-05-10T06:57:44;6.00;;;2.30;;
16770;SDS011;8503;52.472;13.344;2023-05-10T06:59:08;5.43;;;2.28;;
16770;SDS011;8503;52.472;13.344;2023-05-10T07:00:32;3.70;;;1.90;;
16770;SDS011;8503;52.472;13.344;2023-05-10T07:01:55;4.78;;;2.08;;
16770;SDS011;8503;52.472;13.344;2023-05-10T07:03:19;3.40;;;2.15;;
16770;SDS011;8503;52.472;13.344;2023-05-10T07:04:42;6.03;;;2.15;;
16770;SDS011;8503;52.472;13.344;2023-05-10T07:06:06;2.38;;;1.80;;
16770;SDS011;8503;52.472;13.344;2023-05-10T07:07:42;1.50;;;1.40;;
16770;SDS011;8503;52.472;13.344;2023-05-10T07:09:05;2.65;;;1.95;;
16770;SDS011;8503;52.472;13.344;2023-05-10T07:10:29;5.97;;;2.17;;
16770;SDS011;8503;52.472;13.344;2023-05-10T07:11:52;4.28;;;2.17;;
16770;SDS011;8503;52.472;13.344;2023-05-10T07:13:17;2.13;;;1.80;;
16770;SDS011;8503;52.472;13.344;2023-05-10T07:14:41;8.40;;;2.00;;
16770;SDS011;8503;52.472;13.344;2023-05-10T07:16:04;2.40;;;1.90;;
16770;SDS011;8503;52.472;13.344;2023-05-10T07:17:29;7.63;;;2.20;;
16770;SDS011;8503;52.472;13.344;2023-05-10T07:18:52;3.40;;;2.20;;
16770;SDS011;8503;52.472;13.344;2023-05-10T07:20:16;13.48;;;2.15;;
16770;SDS011;8503;52.472;13.344;2023-05-10T07:21:39;2.92;;;2.15;;
16770;SDS011;8503;52.472;13.344;2023-05-10T07:23:05;5.15;;;1.52;;
16770;SDS011;8503;52.472;13.344;2023-05-10T07:24:28;3.50;;;2.15;;
16770;SDS011;8503;52.472;13.344;2023-05-10T07:25:52;1.92;;;1.70;;
16770;SDS011;8503;52.472;13.344;2023-05-10T07:27:16;2.83;;;1.77;;
16770;SDS011;8503;52.472;13.344;2023-05-10T07:28:41;2.53;;;1.88;;
16770;SDS011;8503;52.472;13.344;2023-05-10T07:30:05;1.98;;;1.75;;
16770;SDS011;8503;52.472;13.344;2023-05-10T07:31:29;3.78;;;1.90;;
16770;SDS011;8503;52.472;13.344;2023-05-10T07:32:53;2.10;;;1.60;;
16770;SDS011;8503;52.472;13.344;2023-05-10T07:34:17;3.75;;;2.03;;
16770;SDS011;8503;52.472;13.344;2023-05-10T07:35:40;2.28;;;2.00;;
16770;SDS011;8503;52.472;13.344;2023-05-10T07:37:04;4.40;;;2.03;;
16770;SDS011;8503;52.472;13.344;2023-05-10T07:38:28;1.42;;;1.33;;
16770;SDS011;8503;52.472;13.344;2023-05-10T07:39:52;3.65;;;2.35;;
16770;SDS011;8503;52.472;13.344;2023-05-10T07:41:15;2.65;;;1.80;;
16770;SDS011;8503;52.472;13.344;2023-05-10T07:42:39;3.95;;;2.08;;
16770;SDS011;8503;52.472;13.344;2023-05-10T07:44:04;2.80;;;2.03;;
16770;SDS011;8503;52.472;13.344;2023-05-10T07:45:28;2.45;;;2.20;;
16770;SDS011;8503;52.472;13.344;2023-05-10T07:46:52;4.15;;;2.00;;
16770;SDS011;8503;52.472;13.344;2023-05-10T07:48:16;5.88;;;1.80;;
16770;SDS011;8503;52.472;13.344;2023-05-10T07:49:39;2.38;;;1.60;;
16770;SDS011;8503;52.472;13.344;2023-05-10T07:51:03;3.92;;;1.73;;
16770;SDS011;8503;52.472;13.344;2023-05-10T07:52:27;6.93;;;2.03;;
16770;SDS011;8503;52.472;13.344;2023-05-10T07:53:51;1.83;;;1.73;;
16770;SDS011;8503;52.472;13.344;2023-05-10T07:55:14;3.85;;;1.75;;
16770;SDS011;8503;52.472;13.344;2023-05-10T07:56:38;2.58;;;1.80;;
16770;SDS011;8503;52.472;13.344;2023-05-10T07:58:06;2.58;;;2.00;;
16770;SDS011;8503;52.472;13.344;2023-05-10T07:59:31;3.10;;;2.03;;
16770;SDS011;8503;52.472;13.344;2023-05-10T08:00:55;3.40;;;1.83;;
16770;SDS011;8503;52.472;13.344;2023-05-10T08:02:19;1.60;;;1.50;;
16770;SDS011;8503;52.472;13.344;2023-05-10T08:03:43;3.47;;;2.00;;
16770;SDS011;8503;52.472;13.344;2023-05-10T08:05:06;4.25;;;1.98;;
16770;SDS011;8503;52.472;13.344;2023-05-10T08:06:30;4.38;;;2.33;;
16770;SDS011;8503;52.472;13.344;2023-05-10T08:07:54;3.80;;;1.85;;
16770;SDS011;8503;52.472;13.344;2023-05-10T08:09:17;1.73;;;1.35;;
16770;SDS011;8503;52.472;13.344;2023-05-10T08:10:45;2.53;;;2.10;;
16770;SDS011;8503;52.472;13.344;2023-05-10T08:12:08;4.90;;;2.10;;
16770;SDS011;8503;52.472;13.344;2023-05-10T08:13:31;2.75;;;2.30;;
16770;SDS011;8503;52.472;13.344;2023-05-10T08:14:56;2.63;;;2.10;;
16770;SDS011;8503;52.472;13.344;2023-05-10T08:16:20;4.00;;;2.00;;
16770;SDS011;8503;52.472;13.344;2023-05-10T08:17:44;1.45;;;1.30;;
16770;SDS011;8503;52.472;13.344;2023-05-10T08:19:07;1.73;;;1.60;;
16770;SDS011;8503;52.472;13.344;2023-05-10T08:20:31;1.70;;;1.60;;
16770;SDS011;8503;52.472;13.344;2023-05-10T08:21:54;4.05;;;1.70;;
16770;SDS011;8503;52.472;13.344;2023-05-10T08:23:18;5.47;;;2.10;;
16770;SDS011;8503;52.472;13.344;2023-05-10T08:24:41;2.35;;;1.73;;
16770;SDS011;8503;52.472;13.344;2023-05-10T08:26:05;5.78;;;1.95;;
16770;SDS011;8503;52.472;13.344;2023-05-10T08:27:29;4.30;;;1.80;;
16770;SDS011;8503;52.472;13.344;2023-05-10T08:28:52;5.28;;;1.80;;
16770;SDS011;8503;52.472;13.344;2023-05-10T08:30:32;3.83;;;1.85;;
16770;SDS011;8503;52.472;13.344;2023-05-10T08:31:55;3.90;;;1.77;;
16770;SDS011;8503;52.472;13.344;2023-05-10T08:33:19;1.98;;;1.77;;